sensor_id;sensor_type;location;lat;lon;timestamp;P1;durP1;ratioP1;P2;durP2;ratioP2
11970;SDS011;6045;42.682;23.294;2023-10-09T00:02:02;5.30;;;1.92;;
11970;SDS011;6045;42.682;23.294;2023-10-09T00:04:31;3.15;;;1.75;;
11970;SDS011;6045;42.682;23.294;2023-10-09T00:07:01;2.83;;;1.20;;
11970;SDS011;6045;42.682;23.294;2023-10-09T00:09:33;5.15;;;1.48;;
11970;SDS011;6045;42.682;23.294;2023-10-09T00:12:12;3.25;;;1.63;;
11970;SDS011;6045;42.682;23.294;2023-10-09T00:14:41;2.63;;;1.55;;
11970;SDS011;6045;42.682;23.294;2023-10-09T00:17:13;2.72;;;1.35;;
11970;SDS011;6045;42.682;23.294;2023-10-09T00:19:43;3.08;;;1.50;;
11970;SDS011;6045;42.682;23.294;2023-10-09T00:22:13;4.05;;;1.50;;
11970;SDS011;6045;42.682;23.294;2023-10-09T00:24:51;2.30;;;1.38;;
11970;SDS011;6045;42.682;23.294;2023-10-09T00:27:37;3.70;;;1.83;;
11970;SDS011;6045;42.682;23.294;2023-10-09T00:30:08;2.58;;;1.23;;
11970;SDS011;6045;42.682;23.294;2023-10-09T00:32:40;2.83;;;1.42;;
11970;SDS011;6045;42.682;23.294;2023-10-09T00:35:15;2.20;;;1.30;;
11970;SDS011;6045;42.682;23.294;2023-10-09T00:37:59;5.82;;;1.73;;
11970;SDS011;6045;42.682;23.294;2023-10-09T00:40:39;2.17;;;1.45;;
11970;SDS011;6045;42.682;23.294;2023-10-09T00:43:12;2.08;;;1.20;;
11970;SDS011;6045;42.682;23.294;2023-10-09T00:45:39;5.43;;;1.52;;
11970;SDS011;6045;42.682;23.294;2023-10-09T00:48:09;2.97;;;1.63;;
11970;SDS011;6045;42.682;23.294;2023-10-09T00:50:39;3.28;;;1.35;;
11970;SDS011;6045;42.682;23.294;2023-10-09T00:53:13;1.55;;;1.33;;
11970;SDS011;6045;42.682;23.294;2023-10-09T00:55:43;4.40;;;1.88;;
11970;SDS011;6045;42.682;23.294;2023-10-09T00:58:22;3.28;;;1.65;;
11970;SDS011;6045;42.682;23.294;2023-10-09T01:00:52;1.52;;;1.20;;
11970;SDS011;6045;42.682;23.294;2023-10-09T01:03:19;2.35;;;1.50;;
11970;SDS011;6045;42.682;23.294;2023-10-09T01:05:47;2.10;;;1.25;;
11970;SDS011;6045;42.682;23.294;2023-10-09T01:08:22;1.50;;;1.20;;
11970;SDS011;6045;42.682;23.294;2023-10-09T01:10:56;1.30;;;1.10;;
11970;SDS011;6045;42.682;23.294;2023-10-09T01:13:35;2.42;;;1.17;;
11970;SDS011;6045;42.682;23.294;2023-10-09T01:16:17;2.22;;;1.60;;
11970;SDS011;6045;42.682;23.294;2023-10-09T01:18:47;3.65;;;1.35;;
11970;SDS011;6045;42.682;23.294;2023-10-09T01:21:15;3.38;;;1.48;;
11970;SDS011;6045;42.682;23.294;2023-10-09T01:23:45;4.22;;;1.48;;
11970;SDS011;6045;42.682;23.294;2023-10-09T01:26:28;3.20;;;1.60;;
11970;SDS011;6045;42.682;23.294;2023-10-09T01:28:57;2.50;;;1.13;;
11970;SDS011;6045;42.682;23.294;2023-10-09T01:31:25;4.70;;;1.40;;
11970;SDS011;6045;42.682;23.294;2023-10-09T01:33:52;1.60;;;1.23;;
11970;SDS011;6045;42.682;23.294;2023-10-09T01:36:24;2.53;;;1.42;;
11970;SDS011;6045;42.682;23.294;2023-10-09T01:38:59;2.28;;;1.20;;
11970;SDS011;6045;42.682;23.294;2023-10-09T01:41:27;2.80;;;1.33;;
11970;SDS011;6045;42.682;23.294;2023-10-09T01:43:59;1.67;;;1.43;;
11970;SDS011;6045;42.682;23.294;2023-10-09T01:46:38;4.07;;;1.58;;
11970;SDS011;6045;42.682;23.294;2023-10-09T01:49:04;3.97;;;1.47;;
11970;SDS011;6045;42.682;23.294;2023-10-09T01:51:41;2.20;;;1.13;;
11970;SDS011;6045;42.682;23.294;2023-10-09T01:54:10;1.93;;;1.17;;
11970;SDS011;6045;42.682;23.294;2023-10-09T01:56:42;3.00;;;1.57;;
11970;SDS011;6045;42.682;23.294;2023-10-09T01:59:12;2.03;;;1.50;;
11970;SDS011;6045;42.682;23.294;2023-10-09T02:01:41;2.97;;;1.70;;
11970;SDS011;6045;42.682;23.294;2023-10-09T02:04:13;3.83;;;1.70;;
11970;SDS011;6045;42.682;23.294;2023-10-09T02:06:45;1.80;;;1.30;;
11970;SDS011;6045;42.682;23.294;2023-10-09T02:09:18;2.73;;;1.50;;
11970;SDS011;6045;42.682;23.294;2023-10-09T02:11:52;2.77;;;1.13;;
11970;SDS011;6045;42.682;23.294;2023-10-09T02:14:18;2.27;;;1.43;;
11970;SDS011;6045;42.682;23.294;2023-10-09T02:16:46;4.20;;;1.83;;
11970;SDS011;6045;42.682;23.294;2023-10-09T02:19:53;5.67;;;1.60;;
11970;SDS011;6045;42.682;23.294;2023-10-09T02:22:24;2.00;;;1.37;;
11970;SDS011;6045;42.682;23.294;2023-10-09T02:24:52;2.53;;;1.50;;
11970;SDS011;6045;42.682;23.294;2023-10-09T02:27:30;1.73;;;1.33;;
11970;SDS011;6045;42.682;23.294;2023-10-09T02:30:11;2.83;;;1.40;;
11970;SDS011;6045;42.682;23.294;2023-10-09T02:32:52;1.73;;;1.30;;
11970;SDS011;6045;42.682;23.294;2023-10-09T02:35:33;2.83;;;1.10;;
11970;SDS011;6045;42.682;23.294;2023-10-09T02:38:04;2.30;;;1.47;;
11970;SDS011;6045;42.682;23.294;2023-10-09T02:40:39;2.23;;;1.47;;
11970;SDS011;6045;42.682;23.294;2023-10-09T02:43:25;2.40;;;1.27;;
11970;SDS011;6045;42.682;23.294;2023-10-09T02:45:52;2.67;;;1.30;;
11970;SDS011;6045;42.682;23.294;2023-10-09T02:48:19;6.43;;;1.47;;
11970;SDS011;6045;42.682;23.294;2023-10-09T02:50:52;5.30;;;1.17;;
11970;SDS011;6045;42.682;23.294;2023-10-09T02:53:19;0.80;;;0.80;;
11970;SDS011;6045;42.682;23.294;2023-10-09T02:55:55;1.87;;;1.10;;
11970;SDS011;6045;42.682;23.294;2023-10-09T02:58:37;1.63;;;1.20;;
11970;SDS011;6045;42.682;23.294;2023-10-09T03:01:08;2.33;;;1.40;;
11970;SDS011;6045;42.682;23.294;2023-10-09T03:03:36;2.37;;;1.20;;
11970;SDS011;6045;42.682;23.294;2023-10-09T03:06:05;2.03;;;1.33;;
11970;SDS011;6045;42.682;23.294;2023-10-09T03:08:36;3.13;;;1.37;;
11970;SDS011;6045;42.682;23.294;2023-10-09T03:11:03;3.80;;;1.30;;
11970;SDS011;6045;42.682;23.294;2023-10-09T03:13:31;1.23;;;1.13;;
11970;SDS011;6045;42.682;23.294;2023-10-09T03:15:58;1.33;;;1.17;;
11970;SDS011;6045;42.682;23.294;2023-10-09T03:18:27;1.93;;;1.10;;
11970;SDS011;6045;42.682;23.294;2023-10-09T03:20:54;1.37;;;1.20;;
11970;SDS011;6045;42.682;23.294;2023-10-09T03:23:22;1.80;;;1.20;;
11970;SDS011;6045;42.682;23.294;2023-10-09T03:25:49;1.90;;;1.40;;
11970;SDS011;6045;42.682;23.294;2023-10-09T03:28:16;2.93;;;1.37;;
11970;SDS011;6045;42.682;23.294;2023-10-09T03:30:43;2.80;;;1.20;;
11970;SDS011;6045;42.682;23.294;2023-10-09T03:33:13;2.47;;;1.00;;
11970;SDS011;6045;42.682;23.294;2023-10-09T03:35:41;1.53;;;1.03;;
11970;SDS011;6045;42.682;23.294;2023-10-09T03:38:08;2.07;;;1.10;;
11970;SDS011;6045;42.682;23.294;2023-10-09T03:40:42;2.20;;;1.00;;
11970;SDS011;6045;42.682;23.294;2023-10-09T03:43:09;2.30;;;1.30;;
11970;SDS011;6045;42.682;23.294;2023-10-09T03:45:36;1.40;;;1.00;;
11970;SDS011;6045;42.682;23.294;2023-10-09T03:48:10;3.90;;;1.20;;
11970;SDS011;6045;42.682;23.294;2023-10-09T03:50:45;2.20;;;1.17;;
11970;SDS011;6045;42.682;23.294;2023-10-09T03:53:13;2.83;;;1.30;;
11970;SDS011;6045;42.682;23.294;2023-10-09T03:55:40;2.23;;;1.10;;
11970;SDS011;6045;42.682;23.294;2023-10-09T03:58:08;1.43;;;1.10;;
11970;SDS011;6045;42.682;23.294;2023-10-09T04:00:37;0.93;;;0.80;;
11970;SDS011;6045;42.682;23.294;2023-10-09T04:03:10;3.00;;;0.90;;
11970;SDS011;6045;42.682;23.294;2023-10-09T04:05:39;2.20;;;1.00;;
11970;SDS011;6045;42.682;23.294;2023-10-09T04:08:08;3.47;;;0.90;;
11970;SDS011;6045;42.682;23.294;2023-10-09T04:10:38;2.43;;;1.07;;
11970;SDS011;6045;42.682;23.294;2023-10-09T04:13:18;2.07;;;1.10;;
11970;SDS011;6045;42.682;23.294;2023-10-09T04:15:51;3.20;;;1.20;;
11970;SDS011;6045;42.682;23.294;2023-10-09T04:18:19;2.40;;;0.90;;
11970;SDS011;6045;42.682;23.294;2023-10-09T04:20:53;1.03;;;0.83;;
11970;SDS011;6045;42.682;23.294;2023-10-09T04:23:38;1.93;;;1.50;;
11970;SDS011;6045;42.682;23.294;2023-10-09T04:26:19;2.53;;;1.40;;
11970;SDS011;6045;42.682;23.294;2023-10-09T04:28:47;4.03;;;1.10;;
11970;SDS011;6045;42.682;23.294;2023-10-09T04:31:17;1.83;;;0.80;;
11970;SDS011;6045;42.682;23.294;2023-10-09T04:33:45;1.20;;;0.80;;
11970;SDS011;6045;42.682;23.294;2023-10-09T04:36:19;2.17;;;1.10;;
11970;SDS011;6045;42.682;23.294;2023-10-09T04:38:53;2.00;;;1.00;;
11970;SDS011;6045;42.682;23.294;2023-10-09T04:41:41;0.93;;;0.73;;
11970;SDS011;6045;42.682;23.294;2023-10-09T04:44:41;2.00;;;1.27;;
11970;SDS011;6045;42.682;23.294;2023-10-09T04:47:25;1.93;;;1.40;;
11970;SDS011;6045;42.682;23.294;2023-10-09T04:50:01;1.50;;;1.00;;
11970;SDS011;6045;42.682;23.294;2023-10-09T04:52:36;1.80;;;1.00;;
11970;SDS011;6045;42.682;23.294;2023-10-09T04:55:17;1.20;;;1.10;;
11970;SDS011;6045;42.682;23.294;2023-10-09T04:57:50;1.87;;;1.20;;
11970;SDS011;6045;42.682;23.294;2023-10-09T05:00:29;3.63;;;1.10;;
11970;SDS011;6045;42.682;23.294;2023-10-09T05:03:20;2.90;;;1.40;;
11970;SDS011;6045;42.682;23.294;2023-10-09T05:05:54;2.03;;;1.07;;
11970;SDS011;6045;42.682;23.294;2023-10-09T05:08:25;2.13;;;1.10;;
11970;SDS011;6045;42.682;23.294;2023-10-09T05:10:55;2.80;;;0.93;;
11970;SDS011;6045;42.682;23.294;2023-10-09T05:13:40;3.17;;;0.70;;
11970;SDS011;6045;42.682;23.294;2023-10-09T05:16:12;1.47;;;1.00;;
11970;SDS011;6045;42.682;23.294;2023-10-09T05:18:43;2.03;;;1.27;;
11970;SDS011;6045;42.682;23.294;2023-10-09T05:21:21;3.13;;;1.10;;
11970;SDS011;6045;42.682;23.294;2023-10-09T05:24:05;1.63;;;0.93;;
11970;SDS011;6045;42.682;23.294;2023-10-09T05:26:49;1.93;;;1.10;;
11970;SDS011;6045;42.682;23.294;2023-10-09T05:29:19;4.40;;;1.00;;
11970;SDS011;6045;42.682;23.294;2023-10-09T05:32:01;2.23;;;1.80;;
11970;SDS011;6045;42.682;23.294;2023-10-09T05:34:31;3.10;;;1.10;;
11970;SDS011;6045;42.682;23.294;2023-10-09T05:37:21;2.73;;;0.93;;
11970;SDS011;6045;42.682;23.294;2023-10-09T05:39:50;2.83;;;1.20;;
11970;SDS011;6045;42.682;23.294;2023-10-09T05:42:45;1.20;;;1.00;;
11970;SDS011;6045;42.682;23.294;2023-10-09T05:45:22;1.55;;;1.10;;
11970;SDS011;6045;42.682;23.294;2023-10-09T05:48:19;1.00;;;0.90;;
11970;SDS011;6045;42.682;23.294;2023-10-09T05:51:06;1.33;;;1.02;;
11970;SDS011;6045;42.682;23.294;2023-10-09T05:53:59;1.33;;;0.90;;
11970;SDS011;6045;42.682;23.294;2023-10-09T05:57:08;3.63;;;1.10;;
11970;SDS011;6045;42.682;23.294;2023-10-09T05:59:53;1.15;;;1.00;;
11970;SDS011;6045;42.682;23.294;2023-10-09T06:02:37;1.65;;;1.08;;
11970;SDS011;6045;42.682;23.294;2023-10-09T06:05:22;2.75;;;1.00;;
11970;SDS011;6045;42.682;23.294;2023-10-09T06:08:16;1.27;;;1.00;;
11970;SDS011;6045;42.682;23.294;2023-10-09T06:10:50;14.40;;;2.22;;
11970;SDS011;6045;42.682;23.294;2023-10-09T06:13:30;4.30;;;1.20;;
11970;SDS011;6045;42.682;23.294;2023-10-09T06:16:04;2.15;;;1.00;;
11970;SDS011;6045;42.682;23.294;2023-10-09T06:18:45;1.23;;;1.08;;
11970;SDS011;6045;42.682;23.294;2023-10-09T06:21:34;2.38;;;1.40;;
11970;SDS011;6045;42.682;23.294;2023-10-09T06:24:18;0.68;;;0.68;;
11970;SDS011;6045;42.682;23.294;2023-10-09T06:26:48;1.52;;;1.10;;
11970;SDS011;6045;42.682;23.294;2023-10-09T06:29:32;1.70;;;0.88;;
11970;SDS011;6045;42.682;23.294;2023-10-09T06:32:02;1.20;;;1.05;;
11970;SDS011;6045;42.682;23.294;2023-10-09T06:34:49;0.85;;;0.80;;
11970;SDS011;6045;42.682;23.294;2023-10-09T06:37:19;0.70;;;0.70;;
11970;SDS011;6045;42.682;23.294;2023-10-09T06:40:00;1.30;;;1.00;;
11970;SDS011;6045;42.682;23.294;2023-10-09T06:42:44;1.15;;;0.68;;
11970;SDS011;6045;42.682;23.294;2023-10-09T06:45:16;1.80;;;0.88;;
11970;SDS011;6045;42.682;23.294;2023-10-09T06:47:46;11.18;;;3.13;;
11970;SDS011;6045;42.682;23.294;2023-10-09T06:50:21;1.67;;;1.50;;
11970;SDS011;6045;42.682;23.294;2023-10-09T06:53:09;0.90;;;0.82;;
11970;SDS011;6045;42.682;23.294;2023-10-09T06:55:53;1.10;;;1.00;;
11970;SDS011;6045;42.682;23.294;2023-10-09T06:58:30;1.15;;;0.93;;
11970;SDS011;6045;42.682;23.294;2023-10-09T07:01:07;1.60;;;0.98;;
11970;SDS011;6045;42.682;23.294;2023-10-09T07:03:54;1.40;;;1.00;;
11970;SDS011;6045;42.682;23.294;2023-10-09T07:06:25;0.73;;;0.70;;
11970;SDS011;6045;42.682;23.294;2023-10-09T07:09:07;10.73;;;2.90;;
11970;SDS011;6045;42.682;23.294;2023-10-09T07:11:44;3.33;;;1.15;;
11970;SDS011;6045;42.682;23.294;2023-10-09T07:14:24;0.90;;;0.85;;
11970;SDS011;6045;42.682;23.294;2023-10-09T07:17:09;3.95;;;1.27;;
11970;SDS011;6045;42.682;23.294;2023-10-09T07:19:47;2.45;;;1.00;;
11970;SDS011;6045;42.682;23.294;2023-10-09T07:22:32;1.10;;;0.80;;
11970;SDS011;6045;42.682;23.294;2023-10-09T07:25:06;0.77;;;0.60;;
11970;SDS011;6045;42.682;23.294;2023-10-09T07:27:53;1.20;;;1.00;;
11970;SDS011;6045;42.682;23.294;2023-10-09T07:30:20;1.60;;;1.05;;
11970;SDS011;6045;42.682;23.294;2023-10-09T07:33:03;1.92;;;0.90;;
11970;SDS011;6045;42.682;23.294;2023-10-09T07:35:42;1.08;;;1.00;;
11970;SDS011;6045;42.682;23.294;2023-10-09T07:38:15;1.15;;;0.82;;
11970;SDS011;6045;42.682;23.294;2023-10-09T07:40:46;1.63;;;0.90;;
11970;SDS011;6045;42.682;23.294;2023-10-09T07:43:21;1.33;;;0.95;;
11970;SDS011;6045;42.682;23.294;2023-10-09T07:45:52;1.23;;;0.85;;
11970;SDS011;6045;42.682;23.294;2023-10-09T07:48:36;1.75;;;0.90;;
11970;SDS011;6045;42.682;23.294;2023-10-09T07:51:13;1.92;;;0.88;;
11970;SDS011;6045;42.682;23.294;2023-10-09T07:53:40;0.80;;;0.70;;
11970;SDS011;6045;42.682;23.294;2023-10-09T07:56:11;0.90;;;0.70;;
11970;SDS011;6045;42.682;23.294;2023-10-09T07:58:39;2.53;;;0.88;;
11970;SDS011;6045;42.682;23.294;2023-10-09T08:01:12;1.23;;;0.95;;
11970;SDS011;6045;42.682;23.294;2023-10-09T08:03:47;2.20;;;0.80;;
11970;SDS011;6045;42.682;23.294;2023-10-09T08:06:22;1.40;;;0.93;;
11970;SDS011;6045;42.682;23.294;2023-10-09T08:09:04;1.27;;;1.00;;
11970;SDS011;6045;42.682;23.294;2023-10-09T08:12:12;1.65;;;1.10;;
11970;SDS011;6045;42.682;23.294;2023-10-09T08:14:57;1.85;;;0.93;;
11970;SDS011;6045;42.682;23.294;2023-10-09T08:17:37;1.17;;;1.00;;
11970;SDS011;6045;42.682;23.294;2023-10-09T08:20:04;2.50;;;1.10;;
11970;SDS011;6045;42.682;23.294;2023-10-09T08:22:37;1.73;;;1.20;;
11970;SDS011;6045;42.682;23.294;2023-10-09T08:25:08;1.30;;;1.13;;
11970;SDS011;6045;42.682;23.294;2023-10-09T08:27:52;1.15;;;1.02;;
11970;SDS011;6045;42.682;23.294;2023-10-09T08:30:40;1.30;;;1.08;;
11970;SDS011;6045;42.682;23.294;2023-10-09T08:33:28;1.20;;;1.10;;
11970;SDS011;6045;42.682;23.294;2023-10-09T08:36:06;5.13;;;1.08;;
11970;SDS011;6045;42.682;23.294;2023-10-09T08:38:34;1.55;;;1.00;;
11970;SDS011;6045;42.682;23.294;2023-10-09T08:41:08;1.70;;;0.80;;
11970;SDS011;6045;42.682;23.294;2023-10-09T08:43:51;1.20;;;0.90;;
11970;SDS011;6045;42.682;23.294;2023-10-09T08:46:19;1.02;;;0.60;;
11970;SDS011;6045;42.682;23.294;2023-10-09T08:48:47;0.90;;;0.75;;
11970;SDS011;6045;42.682;23.294;2023-10-09T08:51:23;0.70;;;0.60;;
11970;SDS011;6045;42.682;23.294;2023-10-09T08:53:51;15.38;;;3.70;;
11970;SDS011;6045;42.682;23.294;2023-10-09T08:56:19;4.65;;;1.20;;
11970;SDS011;6045;42.682;23.294;2023-10-09T08:58:52;1.88;;;0.77;;
11970;SDS011;6045;42.682;23.294;2023-10-09T09:01:21;1.40;;;1.00;;
11970;SDS011;6045;42.682;23.294;2023-10-09T09:03:50;1.88;;;0.93;;
11970;SDS011;6045;42.682;23.294;2023-10-09T09:06:20;1.05;;;0.93;;
11970;SDS011;6045;42.682;23.294;2023-10-09T09:08:48;0.98;;;0.82;;
11970;SDS011;6045;42.682;23.294;2023-10-09T09:11:20;3.65;;;0.90;;
11970;SDS011;6045;42.682;23.294;2023-10-09T09:13:48;0.98;;;0.90;;
11970;SDS011;6045;42.682;23.294;2023-10-09T09:16:30;1.40;;;0.77;;
11970;SDS011;6045;42.682;23.294;2023-10-09T09:18:59;1.08;;;0.98;;
11970;SDS011;6045;42.682;23.294;2023-10-09T09:21:28;1.05;;;1.00;;
11970;SDS011;6045;42.682;23.294;2023-10-09T09:24:02;1.08;;;0.85;;
11970;SDS011;6045;42.682;23.294;2023-10-09T09:26:40;1.25;;;0.90;;
11970;SDS011;6045;42.682;23.294;2023-10-09T09:29:12;2.08;;;0.80;;
11970;SDS011;6045;42.682;23.294;2023-10-09T09:31:51;1.00;;;0.85;;
11970;SDS011;6045;42.682;23.294;2023-10-09T09:34:19;1.77;;;1.02;;
11970;SDS011;6045;42.682;23.294;2023-10-09T09:36:50;0.85;;;0.80;;
11970;SDS011;6045;42.682;23.294;2023-10-09T09:39:22;2.83;;;0.85;;
11970;SDS011;6045;42.682;23.294;2023-10-09T09:41:56;1.33;;;0.93;;
11970;SDS011;6045;42.682;23.294;2023-10-09T09:44:33;0.80;;;0.80;;
11970;SDS011;6045;42.682;23.294;2023-10-09T09:47:09;2.35;;;0.93;;
11970;SDS011;6045;42.682;23.294;2023-10-09T09:49:39;1.77;;;1.05;;
11970;SDS011;6045;42.682;23.294;2023-10-09T09:52:08;0.80;;;0.73;;
11970;SDS011;6045;42.682;23.294;2023-10-09T09:54:37;3.03;;;1.20;;
11970;SDS011;6045;42.682;23.294;2023-10-09T09:57:04;1.70;;;1.15;;
11970;SDS011;6045;42.682;23.294;2023-10-09T09:59:38;1.08;;;0.93;;
11970;SDS011;6045;42.682;23.294;2023-10-09T10:02:15;1.05;;;0.80;;
11970;SDS011;6045;42.682;23.294;2023-10-09T10:04:47;1.20;;;0.85;;
11970;SDS011;6045;42.682;23.294;2023-10-09T10:07:19;1.58;;;1.02;;
11970;SDS011;6045;42.682;23.294;2023-10-09T10:09:48;2.25;;;0.75;;
11970;SDS011;6045;42.682;23.294;2023-10-09T10:15:34;2.08;;;0.70;;
11970;SDS011;6045;42.682;23.294;2023-10-09T10:18:28;0.90;;;0.75;;
11970;SDS011;6045;42.682;23.294;2023-10-09T10:23:43;2.85;;;1.10;;
11970;SDS011;6045;42.682;23.294;2023-10-09T10:26:17;1.35;;;1.25;;
11970;SDS011;6045;42.682;23.294;2023-10-09T10:31:56;2.92;;;1.60;;
11970;SDS011;6045;42.682;23.294;2023-10-09T10:34:25;3.72;;;1.70;;
11970;SDS011;6045;42.682;23.294;2023-10-09T10:36:53;1.33;;;1.10;;
11970;SDS011;6045;42.682;23.294;2023-10-09T10:39:25;1.27;;;0.80;;
11970;SDS011;6045;42.682;23.294;2023-10-09T10:42:08;3.05;;;0.95;;
11970;SDS011;6045;42.682;23.294;2023-10-09T10:44:40;1.52;;;0.98;;
11970;SDS011;6045;42.682;23.294;2023-10-09T10:47:12;2.00;;;1.23;;
11970;SDS011;6045;42.682;23.294;2023-10-09T10:49:50;1.58;;;1.20;;
11970;SDS011;6045;42.682;23.294;2023-10-09T10:52:23;2.15;;;0.93;;
11970;SDS011;6045;42.682;23.294;2023-10-09T10:55:10;2.80;;;1.10;;
11970;SDS011;6045;42.682;23.294;2023-10-09T10:58:14;1.83;;;0.93;;
11970;SDS011;6045;42.682;23.294;2023-10-09T11:00:51;0.90;;;0.90;;
11970;SDS011;6045;42.682;23.294;2023-10-09T11:03:46;1.85;;;1.08;;
11970;SDS011;6045;42.682;23.294;2023-10-09T11:06:24;0.82;;;0.82;;
11970;SDS011;6045;42.682;23.294;2023-10-09T11:09:01;1.75;;;1.00;;
11970;SDS011;6045;42.682;23.294;2023-10-09T11:11:36;3.70;;;1.33;;
11970;SDS011;6045;42.682;23.294;2023-10-09T11:14:08;1.30;;;0.90;;
11970;SDS011;6045;42.682;23.294;2023-10-09T11:16:39;0.77;;;0.77;;
11970;SDS011;6045;42.682;23.294;2023-10-09T11:19:14;1.52;;;1.33;;
11970;SDS011;6045;42.682;23.294;2023-10-09T11:21:54;5.15;;;1.48;;
11970;SDS011;6045;42.682;23.294;2023-10-09T11:24:45;3.28;;;2.28;;
11970;SDS011;6045;42.682;23.294;2023-10-09T11:27:25;2.30;;;1.63;;
11970;SDS011;6045;42.682;23.294;2023-10-09T11:29:57;3.28;;;2.17;;
11970;SDS011;6045;42.682;23.294;2023-10-09T11:32:30;2.72;;;2.20;;
11970;SDS011;6045;42.682;23.294;2023-10-09T11:35:10;5.43;;;2.20;;
11970;SDS011;6045;42.682;23.294;2023-10-09T11:37:40;1.92;;;1.45;;
11970;SDS011;6045;42.682;23.294;2023-10-09T11:40:26;2.90;;;2.00;;
11970;SDS011;6045;42.682;23.294;2023-10-09T11:42:59;6.20;;;3.25;;
11970;SDS011;6045;42.682;23.294;2023-10-09T11:45:27;3.15;;;2.33;;
11970;SDS011;6045;42.682;23.294;2023-10-09T11:47:55;2.47;;;2.08;;
11970;SDS011;6045;42.682;23.294;2023-10-09T11:50:43;2.85;;;1.98;;
11970;SDS011;6045;42.682;23.294;2023-10-09T11:53:16;2.30;;;1.20;;
11970;SDS011;6045;42.682;23.294;2023-10-09T11:55:58;4.13;;;2.40;;
11970;SDS011;6045;42.682;23.294;2023-10-09T11:58:26;3.92;;;3.17;;
11970;SDS011;6045;42.682;23.294;2023-10-09T12:00:52;4.43;;;3.65;;
11970;SDS011;6045;42.682;23.294;2023-10-09T12:03:22;3.10;;;2.80;;
11970;SDS011;6045;42.682;23.294;2023-10-09T12:05:55;6.38;;;3.10;;
11970;SDS011;6045;42.682;23.294;2023-10-09T12:08:23;2.00;;;1.50;;
11970;SDS011;6045;42.682;23.294;2023-10-09T12:10:52;4.80;;;1.30;;
11970;SDS011;6045;42.682;23.294;2023-10-09T12:13:21;1.92;;;1.52;;
11970;SDS011;6045;42.682;23.294;2023-10-09T12:15:48;2.28;;;1.70;;
11970;SDS011;6045;42.682;23.294;2023-10-09T12:18:17;1.98;;;1.60;;
11970;SDS011;6045;42.682;23.294;2023-10-09T12:20:44;2.65;;;1.48;;
11970;SDS011;6045;42.682;23.294;2023-10-09T12:23:17;1.85;;;1.30;;
11970;SDS011;6045;42.682;23.294;2023-10-09T12:25:45;1.27;;;1.00;;
11970;SDS011;6045;42.682;23.294;2023-10-09T12:28:12;1.88;;;1.13;;
11970;SDS011;6045;42.682;23.294;2023-10-09T12:30:39;0.95;;;0.90;;
11970;SDS011;6045;42.682;23.294;2023-10-09T12:33:07;2.50;;;0.90;;
11970;SDS011;6045;42.682;23.294;2023-10-09T12:35:38;2.38;;;1.00;;
11970;SDS011;6045;42.682;23.294;2023-10-09T12:38:06;1.25;;;1.15;;
11970;SDS011;6045;42.682;23.294;2023-10-09T12:40:36;1.60;;;1.08;;
11970;SDS011;6045;42.682;23.294;2023-10-09T12:43:05;2.60;;;0.70;;
11970;SDS011;6045;42.682;23.294;2023-10-09T12:45:40;0.77;;;0.70;;
11970;SDS011;6045;42.682;23.294;2023-10-09T12:48:07;1.05;;;0.93;;
11970;SDS011;6045;42.682;23.294;2023-10-09T12:50:35;1.25;;;0.90;;
11970;SDS011;6045;42.682;23.294;2023-10-09T12:53:07;0.77;;;0.68;;
11970;SDS011;6045;42.682;23.294;2023-10-09T12:55:36;1.05;;;0.93;;
11970;SDS011;6045;42.682;23.294;2023-10-09T12:58:05;3.17;;;1.13;;
11970;SDS011;6045;42.682;23.294;2023-10-09T13:00:34;2.33;;;0.95;;
11970;SDS011;6045;42.682;23.294;2023-10-09T13:03:04;2.85;;;1.02;;
11970;SDS011;6045;42.682;23.294;2023-10-09T13:05:42;0.95;;;0.85;;
11970;SDS011;6045;42.682;23.294;2023-10-09T13:08:17;1.55;;;1.10;;
11970;SDS011;6045;42.682;23.294;2023-10-09T13:10:48;1.60;;;0.90;;
11970;SDS011;6045;42.682;23.294;2023-10-09T13:13:24;0.80;;;0.80;;
11970;SDS011;6045;42.682;23.294;2023-10-09T13:16:04;1.30;;;1.02;;
11970;SDS011;6045;42.682;23.294;2023-10-09T13:18:37;1.95;;;0.90;;
11970;SDS011;6045;42.682;23.294;2023-10-09T13:21:05;2.85;;;1.40;;
11970;SDS011;6045;42.682;23.294;2023-10-09T13:23:32;1.05;;;0.95;;
11970;SDS011;6045;42.682;23.294;2023-10-09T13:26:07;0.88;;;0.80;;
11970;SDS011;6045;42.682;23.294;2023-10-09T13:28:47;1.25;;;1.00;;
11970;SDS011;6045;42.682;23.294;2023-10-09T13:31:15;1.27;;;1.08;;
11970;SDS011;6045;42.682;23.294;2023-10-09T13:33:43;0.88;;;0.80;;
11970;SDS011;6045;42.682;23.294;2023-10-09T13:36:11;1.30;;;1.10;;
11970;SDS011;6045;42.682;23.294;2023-10-09T13:38:44;1.92;;;1.08;;
11970;SDS011;6045;42.682;23.294;2023-10-09T13:41:13;2.00;;;1.13;;
11970;SDS011;6045;42.682;23.294;2023-10-09T13:43:43;2.45;;;1.67;;
11970;SDS011;6045;42.682;23.294;2023-10-09T13:46:10;2.75;;;1.48;;
11970;SDS011;6045;42.682;23.294;2023-10-09T13:48:39;4.00;;;1.33;;
11970;SDS011;6045;42.682;23.294;2023-10-09T13:51:06;1.95;;;1.20;;
11970;SDS011;6045;42.682;23.294;2023-10-09T13:53:39;1.83;;;1.38;;
11970;SDS011;6045;42.682;23.294;2023-10-09T13:56:10;1.02;;;0.88;;
11970;SDS011;6045;42.682;23.294;2023-10-09T13:58:43;1.55;;;1.20;;
11970;SDS011;6045;42.682;23.294;2023-10-09T14:01:11;1.85;;;1.20;;
11970;SDS011;6045;42.682;23.294;2023-10-09T14:03:45;1.88;;;1.40;;
11970;SDS011;6045;42.682;23.294;2023-10-09T14:06:15;2.65;;;1.70;;
11970;SDS011;6045;42.682;23.294;2023-10-09T14:08:45;1.65;;;1.25;;
11970;SDS011;6045;42.682;23.294;2023-10-09T14:11:13;3.22;;;1.90;;
11970;SDS011;6045;42.682;23.294;2023-10-09T14:13:40;2.35;;;1.50;;
11970;SDS011;6045;42.682;23.294;2023-10-09T14:16:07;3.97;;;2.10;;
11970;SDS011;6045;42.682;23.294;2023-10-09T14:18:49;5.50;;;2.88;;
11970;SDS011;6045;42.682;23.294;2023-10-09T14:21:18;3.85;;;2.85;;
11970;SDS011;6045;42.682;23.294;2023-10-09T14:23:46;5.32;;;2.50;;
11970;SDS011;6045;42.682;23.294;2023-10-09T14:26:15;3.42;;;1.88;;
11970;SDS011;6045;42.682;23.294;2023-10-09T14:28:43;3.47;;;2.25;;
11970;SDS011;6045;42.682;23.294;2023-10-09T14:31:11;4.05;;;2.17;;
11970;SDS011;6045;42.682;23.294;2023-10-09T14:33:39;2.65;;;1.90;;
11970;SDS011;6045;42.682;23.294;2023-10-09T14:36:16;3.85;;;2.05;;
11970;SDS011;6045;42.682;23.294;2023-10-09T14:38:43;3.17;;;1.60;;
11970;SDS011;6045;42.682;23.294;2023-10-09T14:41:12;2.97;;;1.73;;
11970;SDS011;6045;42.682;23.294;2023-10-09T14:43:41;5.30;;;2.08;;
11970;SDS011;6045;42.682;23.294;2023-10-09T14:46:10;3.60;;;1.58;;
11970;SDS011;6045;42.682;23.294;2023-10-09T14:48:39;3.92;;;2.20;;
11970;SDS011;6045;42.682;23.294;2023-10-09T14:51:11;3.50;;;1.73;;
11970;SDS011;6045;42.682;23.294;2023-10-09T14:53:38;2.92;;;1.48;;
11970;SDS011;6045;42.682;23.294;2023-10-09T14:56:05;3.35;;;2.17;;
11970;SDS011;6045;42.682;23.294;2023-10-09T14:58:34;2.55;;;1.80;;
11970;SDS011;6045;42.682;23.294;2023-10-09T15:01:09;2.88;;;1.80;;
11970;SDS011;6045;42.682;23.294;2023-10-09T15:03:38;5.97;;;2.25;;
11970;SDS011;6045;42.682;23.294;2023-10-09T15:06:05;3.35;;;1.75;;
11970;SDS011;6045;42.682;23.294;2023-10-09T15:08:35;6.40;;;2.65;;
11970;SDS011;6045;42.682;23.294;2023-10-09T15:11:03;3.65;;;1.95;;
11970;SDS011;6045;42.682;23.294;2023-10-09T15:13:31;3.22;;;2.45;;
11970;SDS011;6045;42.682;23.294;2023-10-09T15:15:57;5.88;;;2.25;;
11970;SDS011;6045;42.682;23.294;2023-10-09T15:18:28;3.28;;;1.98;;
11970;SDS011;6045;42.682;23.294;2023-10-09T15:20:58;6.10;;;3.15;;
11970;SDS011;6045;42.682;23.294;2023-10-09T15:23:25;6.28;;;3.13;;
11970;SDS011;6045;42.682;23.294;2023-10-09T15:25:52;7.43;;;4.15;;
11970;SDS011;6045;42.682;23.294;2023-10-09T15:28:19;5.30;;;3.17;;
11970;SDS011;6045;42.682;23.294;2023-10-09T15:30:46;5.13;;;3.13;;
11970;SDS011;6045;42.682;23.294;2023-10-09T15:33:13;3.83;;;2.70;;
11970;SDS011;6045;42.682;23.294;2023-10-09T15:35:43;3.80;;;2.30;;
11970;SDS011;6045;42.682;23.294;2023-10-09T15:38:11;4.13;;;3.03;;